Time;durP1;ratioP1;P1;durP2;ratioP2;P2;SDS_P1;SDS_P2;PMS_P1;PMS_P2;Temp;Humidity;BMP_temperature;BMP_pressure;BME280_temperature;BME280_humidity;BME280_pressure;Samples;Min_cycle;Max_cycle;Signal;HPM_P1;HPM_P2
2023/02/04 00:00:21;;;;;;;9.80;3.20;;;5.90;79.70;;;5.37;72.38;98853.44;5083195;28;20500;-69
2023/02/04 00:02:49;;;;;;;10.07;3.33;;;5.90;79.90;;;5.41;72.99;98872.72;5088923;28;20924;-72
2023/02/04 00:05:18;;;;;;;5.40;3.10;;;5.90;80.10;;;5.49;72.19;98848.66;5081675;28;20443;-68
2023/02/04 00:07:45;;;;;;;8.47;3.20;;;5.90;80.20;;;5.48;72.54;98852.34;5081441;28;20532;-69
2023/02/04 00:10:12;;;;;;;6.40;3.03;;;6.00;79.90;;;5.61;72.11;98851.84;5091225;28;20444;-70
2023/02/04 00:12:41;;;;;;;10.77;2.97;;;6.00;79.90;;;4.98;72.03;98768.22;5089836;28;20672;-69
2023/02/04 00:15:09;;;;;;;6.27;2.90;;;6.00;79.80;;;5.62;72.00;98872.31;5089296;28;20439;-70
2023/02/04 00:17:36;;;;;;;8.30;3.57;;;6.10;79.90;;;5.53;72.18;98860.72;5078066;28;20462;-70
2023/02/04 00:20:05;;;;;;;9.00;4.10;;;6.00;80.00;;;5.44;72.94;98864.34;5089929;28;21003;-71
2023/02/04 00:22:32;;;;;;;6.30;3.10;;;5.90;80.10;;;5.27;72.36;98836.66;5091437;28;20811;-73
2023/02/04 00:24:59;;;;;;;7.63;2.87;;;6.00;80.50;;;5.70;72.37;98873.34;5090003;28;21385;-70
2023/02/04 00:27:27;;;;;;;9.57;3.50;;;6.00;80.00;;;5.58;72.09;98873.63;5091877;28;20452;-70
2023/02/04 00:29:56;;;;;;;10.80;4.10;;;6.00;79.90;;;5.59;71.66;98874.47;5076859;28;20459;-69
2023/02/04 00:32:23;;;;;;;7.43;2.87;;;6.00;79.70;;;5.59;72.36;98875.31;5085198;28;20450;-70
2023/02/04 00:34:52;;;;;;;10.60;3.17;;;6.00;79.90;;;5.55;72.76;98876.66;5102611;28;20491;-69
2023/02/04 00:37:20;;;;;;;5.93;3.03;;;6.00;79.90;;;5.53;71.24;98875.94;5089258;28;20561;-70
2023/02/04 00:39:47;;;;;;;7.90;3.20;;;6.00;79.40;;;5.48;71.46;98868.41;5085749;28;20459;-71
2023/02/04 00:42:14;;;;;;;17.37;4.03;;;6.00;79.20;;;5.60;71.28;98889.53;5100300;28;20467;-72
2023/02/04 00:44:42;;;;;;;8.23;3.03;;;6.10;79.20;;;5.60;70.87;98882.34;5086142;28;20470;-69
2023/02/04 00:47:10;;;;;;;12.50;3.70;;;6.10;78.90;;;5.57;70.68;98884.50;5079344;28;20463;-70
2023/02/04 00:49:38;;;;;;;11.60;3.53;;;6.10;78.90;;;5.61;70.51;98894.75;5079981;28;20505;-70
2023/02/04 00:52:05;;;;;;;12.70;4.00;;;6.10;78.50;;;5.62;70.38;98874.97;5080380;28;20455;-70
2023/02/04 00:54:32;;;;;;;5.27;2.40;;;6.10;78.60;;;5.44;70.43;98866.22;5076829;28;20450;-70
2023/02/04 00:57:00;;;;;;;8.80;2.70;;;6.10;78.40;;;5.51;70.10;98877.94;5083003;28;20446;-68
2023/02/04 00:59:27;;;;;;;13.00;3.90;;;6.10;78.30;;;5.50;70.65;98881.63;5086544;28;20943;-70
2023/02/04 01:01:54;;;;;;;6.57;2.80;;;6.10;78.40;;;5.55;70.35;98879.34;5083838;28;20464;-69
2023/02/04 01:04:24;;;;;;;6.63;2.50;;;6.00;78.50;;;5.51;70.33;98877.94;5086885;28;20444;-70
2023/02/04 01:06:51;;;;;;;11.73;3.43;;;6.00;78.50;;;5.48;70.87;98883.63;5082655;28;20947;-69
2023/02/04 01:09:18;;;;;;;9.43;3.17;;;6.00;78.60;;;5.43;71.45;98902.88;5084616;28;20448;-69
2023/02/04 01:11:46;;;;;;;8.20;2.80;;;6.00;78.70;;;5.55;70.46;98906.13;5089669;28;21005;-69
2023/02/04 01:14:14;;;;;;;11.57;3.20;;;6.00;78.70;;;5.53;70.54;98916.16;5103979;28;20947;-68
2023/02/04 01:16:41;;;;;;;8.57;3.00;;;6.00;78.50;;;5.44;70.89;98915.28;5096005;28;21005;-71
2023/02/04 01:19:08;;;;;;;7.17;4.20;;;5.90;78.40;;;5.44;70.90;98909.91;5080273;28;20472;-69
2023/02/04 01:21:37;;;;;;;11.33;3.70;;;5.90;78.60;;;5.43;70.84;98918.97;5084859;28;20443;-69
2023/02/04 01:24:05;;;;;;;6.93;2.80;;;5.90;78.50;;;5.48;69.97;98919.34;5097373;28;20447;-69
2023/02/04 01:26:32;;;;;;;8.07;3.73;;;5.90;78.40;;;5.42;70.25;98921.81;5088559;28;21028;-68
2023/02/04 01:29:00;;;;;;;10.20;2.50;;;5.90;78.50;;;5.43;70.12;98920.81;5090909;28;20975;-69
2023/02/04 01:31:27;;;;;;;12.27;3.77;;;5.90;78.70;;;5.44;70.47;98935.91;5089302;28;20559;-69
2023/02/04 01:33:54;;;;;;;11.10;4.60;;;5.90;78.50;;;5.44;70.34;98930.53;5091198;28;20455;-71
2023/02/04 01:36:21;;;;;;;12.53;3.07;;;5.90;78.30;;;5.36;69.29;98936.69;5087198;28;20459;-69
2023/02/04 01:38:50;;;;;;;8.67;2.70;;;5.90;78.20;;;5.33;69.31;98919.09;5083169;28;20488;-67
2023/02/04 01:41:18;;;;;;;5.73;2.60;;;5.80;77.50;;;5.22;68.69;98911.31;5080559;28;20455;-69
2023/02/04 01:43:46;;;;;;;12.93;3.10;;;5.90;77.50;;;5.34;68.65;98938.69;5086134;28;20444;-69
2023/02/04 01:46:13;;;;;;;8.37;2.90;;;5.80;77.00;;;5.30;68.80;98943.53;5086584;28;20455;-69
2023/02/04 01:48:41;;;;;;;7.70;2.43;;;5.80;77.10;;;5.23;69.33;98942.47;5086765;28;20525;-68
2023/02/04 01:51:12;;;;;;;8.73;2.57;;;5.80;77.00;;;4.86;68.87;98863.22;5105228;28;20450;-68
2023/02/04 01:53:40;;;;;;;5.20;2.43;;;5.80;76.90;;;5.20;67.87;98956.19;5082792;28;20452;-69
2023/02/04 01:56:18;;;;;;;10.93;2.90;;;5.80;76.30;;;5.35;68.42;98959.13;5072330;28;20447;-69
2023/02/04 01:58:47;;;;;;;12.37;3.00;;;5.80;76.70;;;5.19;68.10;98954.50;5080636;28;20487;-69
2023/02/04 02:01:32;;;;;;;11.23;3.10;;;5.80;76.40;;;4.97;67.80;98919.22;5085537;28;21060;-69
2023/02/04 02:03:59;;;;;;;8.27;2.20;;;5.80;76.20;;;5.29;67.94;98944.53;5076817;28;20961;-70
2023/02/04 02:06:28;;;;;;;4.77;2.07;;;5.70;76.20;;;5.26;67.46;98955.56;5077561;28;20458;-69
2023/02/04 02:08:57;;;;;;;4.43;2.33;;;5.70;75.80;;;5.24;66.56;98954.91;5101038;28;20455;-69
2023/02/04 02:11:26;;;;;;;9.13;2.40;;;5.70;74.60;;;5.23;65.24;98962.06;5074157;28;20477;-69
2023/02/04 02:13:54;;;;;;;11.07;2.57;;;5.80;73.70;;;5.30;64.64;98956.94;5085666;28;20456;-69
2023/02/04 02:16:22;;;;;;;10.63;2.33;;;5.80;73.60;;;5.28;63.60;98958.94;5085052;28;20443;-69
2023/02/04 02:18:52;;;;;;;9.00;2.43;;;5.80;72.50;;;5.31;62.85;98965.81;5086292;28;20815;-69
2023/02/04 02:21:30;;;;;;;9.37;1.80;;;5.80;72.10;;;5.20;62.54;98981.16;5087888;28;20451;-70
2023/02/04 02:24:00;;;;;;;7.13;2.10;;;5.80;70.90;;;5.26;63.12;98977.00;5097371;28;20463;-73
2023/02/04 02:26:28;;;;;;;6.83;2.30;;;5.80;71.20;;;5.03;62.92;98976.69;5081162;28;20459;-69
2023/02/04 02:28:55;;;;;;;4.57;2.60;;;5.70;71.10;;;5.16;64.02;98977.13;5086212;28;20455;-69
2023/02/04 02:31:23;;;;;;;8.97;2.40;;;5.70;71.80;;;5.07;64.13;98973.50;5081511;28;20451;-69
2023/02/04 02:33:51;;;;;;;8.17;2.33;;;5.60;72.20;;;5.10;65.09;98977.72;5074783;28;20491;-69
2023/02/04 02:36:18;;;;;;;11.23;2.60;;;5.60;73.10;;;5.08;66.60;98971.69;5076815;28;20456;-69
2023/02/04 02:38:46;;;;;;;7.97;2.87;;;5.60;73.90;;;5.09;67.40;98976.91;5082814;28;20518;-69
2023/02/04 02:41:15;;;;;;;7.97;2.90;;;5.50;75.00;;;5.04;69.23;98984.53;5080240;28;20462;-69
2023/02/04 02:43:44;;;;;;;8.67;3.13;;;5.50;76.00;;;4.86;69.28;98968.53;5065028;28;20452;-69
2023/02/04 02:46:11;;;;;;;9.10;2.83;;;5.50;76.60;;;5.05;69.94;98985.41;5089238;28;20897;-70
2023/02/04 02:48:38;;;;;;;8.53;3.10;;;5.40;77.30;;;5.07;69.88;98999.47;5081727;28;20482;-70
2023/02/04 02:51:05;;;;;;;10.53;3.20;;;5.50;77.40;;;4.90;69.31;98994.00;5077740;28;20448;-69
2023/02/04 02:53:32;;;;;;;9.33;2.20;;;5.50;76.70;;;4.85;69.96;98992.78;5081985;28;20458;-68
2023/02/04 02:56:03;;;;;;;8.13;2.60;;;5.50;76.60;;;4.98;69.09;98993.22;5077666;28;20458;-69
2023/02/04 02:58:37;;;;;;;7.37;2.80;;;5.50;76.50;;;5.03;68.35;99008.81;5095145;28;20559;-69
2023/02/04 03:01:07;;;;;;;7.50;1.50;;;5.50;75.90;;;4.95;67.24;99006.91;5071721;28;20814;-69
2023/02/04 03:03:39;;;;;;;9.27;2.50;;;5.50;74.50;;;5.05;66.70;99007.66;5077800;28;20463;-69
2023/02/04 03:06:11;;;;;;;9.83;2.60;;;5.60;74.20;;;4.50;66.45;98931.91;5078461;28;20451;-70
2023/02/04 03:08:39;;;;;;;5.53;2.17;;;5.50;74.00;;;5.00;65.21;99011.78;5094062;28;21021;-69
2023/02/04 03:11:07;;;;;;;7.30;2.43;;;5.60;73.30;;;4.97;65.47;99015.63;5075227;28;20536;-69
2023/02/04 03:13:35;;;;;;;8.57;2.63;;;5.50;73.30;;;4.83;65.06;99011.66;5080694;28;20451;-69
2023/02/04 03:16:04;;;;;;;11.60;2.30;;;5.50;73.10;;;4.98;65.47;99033.38;5086431;28;20455;-71
2023/02/04 03:18:31;;;;;;;8.30;2.57;;;5.50;72.80;;;4.90;65.22;99031.47;5092390;28;20482;-70
2023/02/04 03:20:59;;;;;;;6.47;2.17;;;5.50;72.80;;;4.90;64.63;99035.97;5086553;28;20465;-68
2023/02/04 03:23:27;;;;;;;8.23;2.60;;;5.40;72.90;;;4.80;65.13;99050.31;5085860;28;20471;-68
2023/02/04 03:25:54;;;;;;;8.77;2.10;;;5.30;72.60;;;4.58;65.09;99054.28;5086917;28;20449;-69
2023/02/04 03:28:21;;;;;;;6.70;2.47;;;5.30;72.60;;;4.65;65.61;99057.19;5087967;28;20971;-67
2023/02/04 03:30:55;;;;;;;11.70;2.47;;;5.30;73.20;;;4.64;65.63;99059.00;5087151;28;20515;-69
2023/02/04 03:33:22;;;;;;;5.07;2.17;;;5.20;72.80;;;4.68;66.09;99070.25;5088861;28;20479;-70
2023/02/04 03:35:50;;;;;;;10.97;2.80;;;5.20;73.00;;;4.51;66.28;99047.81;5085884;28;20836;-69
2023/02/04 03:38:18;;;;;;;4.40;2.03;;;5.20;73.20;;;4.79;66.03;99083.44;5080107;28;20475;-69
2023/02/04 03:40:45;;;;;;;7.10;1.43;;;5.20;73.30;;;4.85;65.85;99081.97;5089954;28;20531;-69
2023/02/04 03:43:13;;;;;;;6.00;2.10;;;5.20;73.50;;;4.68;66.13;99086.31;5105772;28;20458;-69
2023/02/04 03:45:41;;;;;;;8.30;2.17;;;5.20;73.40;;;4.73;65.93;99083.19;5084106;28;20850;-68
2023/02/04 03:48:10;;;;;;;9.10;2.43;;;5.30;73.60;;;4.80;66.46;99090.47;5082392;28;20539;-68
2023/02/04 03:50:38;;;;;;;5.80;1.77;;;5.30;73.60;;;4.68;66.64;99099.72;5086233;28;20447;-69
2023/02/04 03:53:07;;;;;;;6.30;2.10;;;5.30;73.60;;;4.63;67.04;99081.41;5084874;28;20948;-69
2023/02/04 03:55:35;;;;;;;7.67;2.50;;;5.30;74.00;;;4.61;67.43;99112.84;5079489;28;20798;-69
2023/02/04 03:58:02;;;;;;;4.30;1.87;;;5.20;74.30;;;4.72;67.98;99109.13;5075540;28;20444;-70
2023/02/04 04:00:30;;;;;;;10.83;2.80;;;5.10;74.70;;;4.53;68.70;99121.63;5086525;28;20452;-70
2023/02/04 04:02:58;;;;;;;8.10;2.07;;;5.10;75.00;;;4.58;68.64;99120.34;5090372;28;20518;-69
2023/02/04 04:05:27;;;;;;;11.73;3.93;;;5.00;75.20;;;4.64;68.36;99117.09;5088704;28;20448;-70
2023/02/04 04:07:55;;;;;;;7.30;2.40;;;5.10;75.60;;;4.52;69.72;99128.00;5090439;28;20803;-70
2023/02/04 04:10:23;;;;;;;11.50;2.30;;;5.00;75.70;;;4.51;69.32;99123.63;5086077;28;20458;-70
2023/02/04 04:12:50;;;;;;;9.00;2.67;;;5.00;76.10;;;4.64;69.39;99128.63;5083369;28;20447;-70
2023/02/04 04:15:17;;;;;;;7.80;2.40;;;5.20;75.90;;;4.65;68.99;99118.75;5084007;28;20520;-72
2023/02/04 04:17:44;;;;;;;6.60;2.40;;;5.10;76.00;;;4.36;69.58;99115.22;5090439;28;20501;-70
2023/02/04 04:20:13;;;;;;;5.80;2.03;;;5.00;76.20;;;4.45;70.34;99118.84;5089462;28;20474;-67
2023/02/04 04:22:41;;;;;;;4.97;2.00;;;5.00;76.50;;;4.53;69.91;99127.00;5088993;28;20522;-69
2023/02/04 04:25:09;;;;;;;6.50;2.10;;;5.00;76.90;;;4.38;70.99;99128.47;5089556;28;20508;-69
2023/02/04 04:27:36;;;;;;;7.73;2.00;;;4.90;77.00;;;4.44;71.36;99138.56;5089233;28;20507;-68
2023/02/04 04:30:04;;;;;;;11.83;2.37;;;4.90;77.10;;;4.45;70.86;99142.09;5084144;28;20507;-68
2023/02/04 04:32:31;;;;;;;9.90;2.70;;;4.90;77.20;;;4.46;70.96;99144.63;5087059;28;20460;-69
2023/02/04 04:34:58;;;;;;;6.70;1.60;;;4.90;77.40;;;4.33;70.80;99144.97;5081523;28;20477;-70
2023/02/04 04:37:26;;;;;;;13.23;2.50;;;4.90;77.50;;;4.57;70.19;99153.47;5078731;28;20454;-69
2023/02/04 04:39:59;;;;;;;14.00;3.30;;;5.00;77.60;;;4.40;71.27;99169.31;5084080;28;20529;-68
2023/02/04 04:42:26;;;;;;;8.37;2.40;;;5.00;77.10;;;4.08;70.04;99085.78;5081396;28;20460;-69
2023/02/04 04:44:53;;;;;;;5.00;2.53;;;5.00;77.10;;;4.45;70.44;99145.63;5079631;28;20454;-74
2023/02/04 04:47:21;;;;;;;5.07;2.50;;;5.10;77.20;;;4.50;70.82;99175.47;5079029;28;20462;-68
2023/02/04 04:49:48;;;;;;;10.97;2.67;;;5.10;77.30;;;4.60;70.52;99185.28;5087430;28;20450;-68
2023/02/04 04:52:15;;;;;;;9.00;2.30;;;5.00;77.50;;;4.45;71.08;99191.09;5084827;28;20490;-70
2023/02/04 04:54:43;;;;;;;7.43;2.70;;;5.00;77.50;;;4.53;70.69;99175.16;5082281;28;21105;-69
2023/02/04 04:57:11;;;;;;;7.27;2.57;;;5.00;77.80;;;4.38;72.10;99192.69;5082066;28;20466;-69
2023/02/04 04:59:38;;;;;;;8.20;2.20;;;4.90;77.80;;;4.34;72.20;99199.34;5084043;28;20977;-70
2023/02/04 05:02:06;;;;;;;11.80;2.97;;;4.90;77.90;;;4.34;71.82;99202.84;5081692;28;20451;-69
2023/02/04 05:04:33;;;;;;;7.97;2.93;;;4.90;78.10;;;4.30;72.45;99205.94;5076206;28;20516;-70
2023/02/04 05:07:00;;;;;;;8.67;2.30;;;4.80;78.30;;;4.14;72.56;99202.06;5086906;28;20464;-71
2023/02/04 05:09:27;;;;;;;8.73;2.27;;;4.80;78.50;;;4.18;73.04;99224.03;5078392;28;21016;-69
2023/02/04 05:11:55;;;;;;;9.00;2.60;;;4.80;78.60;;;4.14;73.48;99218.09;5086596;28;21027;-70
2023/02/04 05:14:24;;;;;;;10.37;3.13;;;4.80;78.80;;;4.25;73.23;99242.03;5080078;28;20463;-69
2023/02/04 05:16:51;;;;;;;7.20;2.33;;;4.70;79.00;;;4.16;73.36;99226.81;5079513;28;20763;-69
2023/02/04 05:19:18;;;;;;;10.37;2.60;;;4.70;79.20;;;4.16;73.37;99231.34;5074344;28;21389;-68
2023/02/04 05:21:45;;;;;;;5.70;2.20;;;4.70;78.90;;;4.19;73.43;99226.56;5075117;28;20579;-70
2023/02/04 05:24:14;;;;;;;8.73;3.40;;;4.70;79.10;;;4.24;73.04;99235.00;5075363;28;20462;-69
2023/02/04 05:26:41;;;;;;;5.97;2.43;;;4.70;79.10;;;4.33;73.60;99248.50;5080227;28;20460;-69
2023/02/04 05:29:09;;;;;;;12.13;3.40;;;4.80;79.10;;;4.28;72.76;99256.09;5076489;28;20459;-71
2023/02/04 05:31:38;;;;;;;8.90;2.23;;;4.80;79.00;;;4.32;73.03;99247.66;5079009;28;20463;-69
2023/02/04 05:34:05;;;;;;;8.20;2.33;;;4.80;79.60;;;4.25;73.01;99250.06;5082974;28;20906;-69
2023/02/04 05:36:33;;;;;;;9.90;2.90;;;4.80;79.10;;;4.22;73.35;99257.50;5077482;28;20463;-69
2023/02/04 05:39:00;;;;;;;7.40;2.43;;;4.70;79.20;;;4.16;74.08;99253.56;5093214;27;20779;-69
2023/02/04 05:41:28;;;;;;;11.37;2.53;;;4.70;79.40;;;4.07;74.01;99257.13;5076830;28;20849;-69
2023/02/04 05:43:55;;;;;;;10.87;2.60;;;4.70;79.60;;;4.04;74.85;99270.78;5093327;28;20455;-71
2023/02/04 05:46:22;;;;;;;6.47;2.13;;;4.60;79.90;;;4.15;74.77;99267.13;5075802;28;20514;-70
2023/02/04 05:48:50;;;;;;;11.60;2.90;;;4.70;80.70;;;4.05;75.96;99269.81;5076851;28;20869;-69
2023/02/04 05:51:18;;;;;;;9.60;2.77;;;4.60;81.70;;;3.82;76.28;99270.94;5080639;28;20460;-71
2023/02/04 05:53:45;;;;;;;7.87;2.67;;;4.50;82.20;;;3.81;77.49;99261.25;5076855;28;20475;-70
2023/02/04 05:56:13;;;;;;;7.10;2.67;;;4.40;83.60;;;3.74;79.47;99286.84;5079796;28;20458;-69
2023/02/04 05:58:40;;;;;;;9.00;2.90;;;4.20;85.60;;;3.66;80.07;99294.72;5060631;28;20461;-68
2023/02/04 06:01:09;;;;;;;8.03;2.70;;;4.20;88.70;;;3.37;80.58;99301.69;5070684;28;20474;-68
2023/02/04 06:03:36;;;;;;;6.83;2.40;;;4.00;88.20;;;3.31;81.17;99310.28;5072653;28;20504;-70
2023/02/04 06:06:06;;;;;;;8.77;2.40;;;3.90;89.40;;;3.27;81.27;99300.84;5071998;28;20973;-69
2023/02/04 06:08:33;;;;;;;7.83;2.80;;;3.80;90.20;;;3.24;82.27;99311.78;5078683;28;20478;-68
2023/02/04 06:11:00;;;;;;;12.10;3.20;;;3.80;90.70;;;3.23;82.52;99331.47;5073754;28;20483;-66
2023/02/04 06:13:27;;;;;;;12.57;3.07;;;3.80;90.70;;;3.38;82.26;99332.78;5077343;28;20511;-67
2023/02/04 06:15:55;;;;;;;13.00;2.73;;;3.70;91.00;;;3.21;82.03;99320.09;5076366;28;20466;-67
2023/02/04 06:18:22;;;;;;;11.40;3.40;;;3.70;91.40;;;3.24;81.75;99338.50;5078496;28;20607;-68
2023/02/04 06:20:50;;;;;;;14.03;2.60;;;3.70;91.40;;;3.26;82.05;99329.38;5081317;28;20465;-69
2023/02/04 06:23:18;;;;;;;7.00;2.10;;;3.70;90.90;;;3.04;81.51;99285.03;5084847;28;20518;-69
2023/02/04 06:25:46;;;;;;;10.77;2.77;;;3.80;91.00;;;3.45;81.04;99357.13;5075101;28;20552;-69
2023/02/04 06:28:13;;;;;;;10.23;2.63;;;3.80;90.90;;;3.30;82.48;99364.69;5080521;28;20585;-68
2023/02/04 06:30:42;;;;;;;8.73;2.50;;;3.80;90.60;;;3.38;82.03;99367.50;5078325;28;20535;-67
2023/02/04 06:33:10;;;;;;;3.60;1.20;;;3.80;91.30;;;2.96;81.12;99368.50;5074717;28;21046;-68
2023/02/04 06:35:37;;;;;;;2.83;0.93;;;3.70;87.80;;;2.90;80.90;99387.72;5078007;28;20457;-67
2023/02/04 06:38:05;;;;;;;5.03;1.23;;;3.50;88.70;;;2.75;80.48;99383.69;5079676;28;20454;-67
2023/02/04 06:40:33;;;;;;;4.67;1.30;;;3.40;87.20;;;2.80;79.79;99400.16;5079415;28;20474;-71
2023/02/04 06:43:01;;;;;;;2.20;0.83;;;3.30;87.20;;;2.78;79.92;99404.78;5091933;28;20859;-71
2023/02/04 06:45:28;;;;;;;4.27;0.93;;;3.30;87.10;;;2.77;79.87;99419.13;5073493;28;20470;-71
2023/02/04 06:47:55;;;;;;;1.87;0.90;;;3.30;87.50;;;2.73;80.70;99415.00;5094490;28;20465;-70
2023/02/04 06:50:22;;;;;;;3.80;1.10;;;3.20;89.50;;;2.41;80.70;99360.72;5085612;28;20721;-71
2023/02/04 06:52:49;;;;;;;1.63;0.90;;;3.20;90.10;;;2.46;81.78;99419.88;5077935;28;20535;-73
2023/02/04 06:55:18;;;;;;;2.33;1.20;;;3.00;90.20;;;2.12;82.74;99412.88;5076319;28;20449;-74
2023/02/04 06:57:46;;;;;;;4.47;1.20;;;2.80;91.10;;;2.20;83.14;99444.25;5078273;28;20552;-71
2023/02/04 07:00:15;;;;;;;1.60;1.00;;;2.70;91.80;;;2.18;83.20;99437.34;5084360;28;20540;-73
2023/02/04 07:02:42;;;;;;;2.03;1.20;;;2.60;92.50;;;2.32;83.48;99457.53;5098158;27;20447;-76
2023/02/04 07:05:10;;;;;;;2.70;1.10;;;2.70;93.20;;;2.31;83.57;99456.69;5083935;28;20453;-71
2023/02/04 07:07:37;;;;;;;1.27;1.10;;;2.60;93.20;;;2.22;83.54;99455.63;5086504;28;23355;-74
2023/02/04 07:10:05;;;;;;;3.47;1.37;;;2.60;93.10;;;2.25;84.36;99466.03;5078090;28;20954;-73
2023/02/04 07:12:33;;;;;;;3.37;1.53;;;2.60;93.30;;;2.28;84.03;99467.63;5075207;28;20550;-71
2023/02/04 07:15:02;;;;;;;1.73;1.40;;;2.60;94.00;;;2.43;84.16;99457.47;5080103;28;20528;-71
2023/02/04 07:17:29;;;;;;;2.33;1.63;;;2.70;94.90;;;2.61;85.11;99451.56;5077754;28;20469;-71
2023/02/04 07:19:56;;;;;;;2.47;1.80;;;2.90;97.70;;;2.62;83.94;99458.59;5081059;28;20493;-71
2023/02/04 07:22:24;;;;;;;5.50;2.60;;;2.80;94.60;;;2.68;83.26;99466.13;5106554;28;20476;-73
2023/02/04 07:24:51;;;;;;;3.97;2.33;;;2.90;93.50;;;2.39;84.23;99478.22;5083473;28;20453;-74
2023/02/04 07:27:18;;;;;;;2.53;1.80;;;2.80;93.10;;;2.45;83.62;99457.38;5089027;28;20475;-71
2023/02/04 07:29:45;;;;;;;4.43;2.37;;;2.90;93.00;;;2.53;83.88;99487.78;5102333;28;20458;-73
2023/02/04 07:32:16;;;;;;;1.67;1.20;;;2.90;93.70;;;2.57;83.12;99490.19;5085041;28;20466;-71
2023/02/04 07:34:44;;;;;;;2.73;2.17;;;2.80;92.80;;;2.19;84.92;99407.03;5084137;28;20478;-70
2023/02/04 07:37:11;;;;;;;3.33;2.47;;;2.90;95.00;;;2.79;82.96;99481.22;5074885;28;20458;-72
2023/02/04 07:39:38;;;;;;;3.10;2.10;;;3.00;93.50;;;2.65;83.30;99487.69;5082945;28;20467;-72
2023/02/04 07:42:05;;;;;;;2.07;1.83;;;2.90;92.90;;;2.65;82.66;99501.91;5078632;28;20510;-72
2023/02/04 07:44:33;;;;;;;4.80;1.97;;;2.90;92.20;;;2.58;82.11;99514.06;5082965;28;20848;-75
2023/02/04 07:47:00;;;;;;;3.90;2.20;;;2.80;92.00;;;2.58;82.23;99524.75;5099256;28;20450;-71
2023/02/04 07:49:29;;;;;;;4.50;2.90;;;2.80;91.90;;;2.57;81.37;99525.69;5082258;28;20476;-72
2023/02/04 07:51:57;;;;;;;2.17;1.97;;;2.80;91.30;;;2.64;81.80;99534.03;5073107;28;20454;-71
2023/02/04 07:54:24;;;;;;;3.80;1.93;;;2.90;91.70;;;2.67;81.23;99539.16;5077190;28;20549;-72
2023/02/04 07:56:52;;;;;;;2.43;2.13;;;2.90;91.00;;;2.73;81.95;99545.78;5079336;28;20462;-71
2023/02/04 07:59:19;;;;;;;5.27;3.30;;;2.90;91.20;;;2.88;81.05;99541.00;5078825;28;20452;-72
2023/02/04 08:01:46;;;;;;;5.20;2.43;;;3.10;91.50;;;2.87;81.88;99544.66;5079812;28;20874;-69
2023/02/04 08:04:14;;;;;;;3.20;2.90;;;3.10;91.40;;;2.85;81.15;99525.25;5061822;28;20458;-71
2023/02/04 08:06:43;;;;;;;2.03;1.83;;;3.20;91.10;;;2.88;79.32;99533.00;5077497;28;20453;-71
2023/02/04 08:09:10;;;;;;;4.50;2.47;;;3.20;89.00;;;2.93;79.46;99549.47;5075616;28;20464;-74
2023/02/04 08:11:37;;;;;;;3.00;2.23;;;3.20;87.90;;;2.99;79.64;99548.97;5075945;28;20485;-75
2023/02/04 08:14:05;;;;;;;1.87;1.77;;;3.30;89.40;;;3.17;79.75;99561.75;5075375;28;20783;-72
2023/02/04 08:16:32;;;;;;;1.80;1.20;;;3.30;89.50;;;3.05;77.10;99564.47;5081472;28;20508;-71
2023/02/04 08:18:59;;;;;;;1.60;1.50;;;3.40;85.20;;;3.05;76.67;99553.78;5101209;27;20466;-71
2023/02/04 08:21:26;;;;;;;1.33;1.23;;;3.40;83.80;;;3.10;76.20;99564.91;5076976;28;20501;-74
2023/02/04 08:23:55;;;;;;;2.07;1.37;;;3.50;83.00;;;3.37;75.64;99576.91;5083486;28;20741;-72
2023/02/04 08:26:23;;;;;;;1.40;1.20;;;3.60;82.80;;;3.57;75.14;99570.84;5080362;28;20745;-76
2023/02/04 08:28:50;;;;;;;1.70;1.33;;;3.80;83.30;;;3.78;74.09;99581.50;5082580;28;20446;-71
2023/02/04 08:31:17;;;;;;;2.77;1.43;;;4.00;83.20;;;4.06;72.67;99590.63;5083021;28;20496;-75
2023/02/04 08:33:44;;;;;;;1.50;1.30;;;4.20;81.70;;;4.33;74.30;99596.38;5085025;28;20742;-71
2023/02/04 08:36:12;;;;;;;1.37;1.23;;;4.50;82.40;;;4.18;70.70;99599.41;5086709;28;20455;-71
2023/02/04 08:38:40;;;;;;;3.33;1.07;;;4.50;78.50;;;4.11;70.18;99603.59;5085193;28;20450;-72
2023/02/04 08:41:08;;;;;;;1.33;1.20;;;4.50;78.10;;;4.04;68.98;99613.16;5076490;28;20524;-73
2023/02/04 08:43:36;;;;;;;1.17;1.07;;;4.50;77.00;;;3.80;69.29;99608.94;5083977;28;20451;-85
2023/02/04 08:46:04;;;;;;;2.33;1.40;;;4.40;76.30;;;3.91;69.25;99619.56;5088678;28;20525;-76
2023/02/04 08:48:31;;;;;;;1.43;1.33;;;4.30;76.70;;;3.69;69.05;99593.84;5098567;28;20442;-83
2023/02/04 08:50:58;;;;;;;1.57;1.37;;;4.30;76.60;;;3.86;70.38;99613.75;5083010;28;20464;-74
2023/02/04 08:53:27;;;;;;;1.63;1.33;;;4.30;77.20;;;4.02;68.81;99617.78;5079002;28;20766;-80
2023/02/04 08:55:55;;;;;;;1.70;1.37;;;4.40;76.40;;;3.97;68.19;99624.38;5082325;28;20495;-81
2023/02/04 08:58:23;;;;;;;2.13;1.47;;;4.40;76.00;;;4.14;68.87;99623.91;5080153;28;20509;-77
2023/02/04 09:00:50;;;;;;;1.77;1.67;;;4.40;76.30;;;4.07;68.33;99634.28;5085874;28;20472;-78
2023/02/04 09:03:18;;;;;;;1.90;1.17;;;4.50;76.40;;;3.81;66.50;99640.91;5074008;28;20466;-81
2023/02/04 09:05:46;;;;;;;1.53;0.90;;;4.40;73.90;;;3.90;64.64;99635.75;5077448;28;20965;-79
2023/02/04 09:08:14;;;;;;;1.30;1.20;;;4.40;72.60;;;3.97;65.60;99640.44;5082418;28;20915;-80
2023/02/04 09:10:43;;;;;;;1.70;1.23;;;4.40;72.90;;;3.93;63.77;99630.97;5078448;28;20467;-80
2023/02/04 09:13:11;;;;;;;1.30;1.13;;;4.50;71.60;;;3.87;63.50;99654.72;5079950;28;20447;-79
2023/02/04 09:15:39;;;;;;;1.17;1.07;;;4.40;71.00;;;3.96;63.32;99657.44;5078996;28;20466;-77
2023/02/04 09:18:15;;;;;;;1.40;1.30;;;4.40;70.10;;;3.91;62.45;99661.50;5074970;28;20480;-79
2023/02/04 09:20:42;;;;;;;1.33;0.90;;;4.40;69.40;;;3.62;62.82;99608.69;5077939;28;20509;-81
2023/02/04 09:23:11;;;;;;;0.90;0.90;;;4.40;69.70;;;3.92;62.88;99636.44;5081877;28;20455;-77
2023/02/04 09:25:38;;;;;;;1.20;1.03;;;4.50;69.80;;;4.14;63.08;99662.19;5091446;28;20444;-78
2023/02/04 09:28:25;;;;;;;1.70;1.00;;;4.60;70.00;;;3.72;60.70;99590.06;5089731;28;20481;-77
2023/02/04 09:30:54;;;;;;;1.00;1.00;;;4.70;68.30;;;4.09;60.28;99677.78;5095796;28;20435;-77
2023/02/04 09:33:22;;;;;;;1.70;0.77;;;4.70;67.10;;;4.11;59.89;99649.94;5103985;28;20975;-79
2023/02/04 09:35:49;;;;;;;1.00;0.80;;;4.60;66.80;;;4.52;61.00;99670.50;5097413;28;20567;-79
2023/02/04 09:38:17;;;;;;;1.00;1.00;;;4.80;68.10;;;4.34;59.54;99668.47;5081650;28;21345;-77
2023/02/04 09:40:50;;;;;;;1.77;1.17;;;4.80;66.30;;;4.12;60.01;99661.47;5083683;28;20470;-80
2023/02/04 09:43:23;;;;;;;0.97;0.80;;;4.70;65.70;;;4.28;60.15;99689.56;5086385;28;20486;-77
2023/02/04 09:45:53;;;;;;;0.90;0.90;;;4.70;65.50;;;4.14;60.83;99696.97;5094456;28;20443;-77
2023/02/04 09:48:22;;;;;;;1.00;0.90;;;4.60;66.20;;;4.19;60.38;99691.22;5091695;28;20471;-79
2023/02/04 09:50:51;;;;;;;0.80;0.80;;;4.70;66.30;;;4.41;60.02;99716.13;5081698;28;20459;-81
2023/02/04 09:53:22;;;;;;;1.37;1.20;;;4.70;65.80;;;4.32;59.38;99715.94;5084155;28;20463;-77
2023/02/04 09:55:51;;;;;;;1.63;0.90;;;4.80;64.70;;;4.05;58.89;99690.59;5077461;28;20452;-77
2023/02/04 09:58:22;;;;;;;1.17;1.07;;;4.70;64.40;;;4.15;59.32;99728.09;5072983;28;20557;-81
2023/02/04 10:00:59;;;;;;;0.87;0.87;;;4.70;64.60;;;4.20;58.57;99715.19;5075176;28;20873;-77
2023/02/04 10:03:26;;;;;;;1.10;0.80;;;4.60;64.10;;;4.27;58.23;99714.63;5075666;28;20457;-75
2023/02/04 10:05:54;;;;;;;1.50;1.10;;;4.70;64.10;;;4.15;57.44;99738.78;5077559;28;20448;-79
2023/02/04 10:08:28;;;;;;;1.70;1.00;;;4.70;62.50;;;4.23;58.26;99741.66;5081721;28;20197;-78
2023/02/04 10:10:56;;;;;;;1.07;0.73;;;4.70;63.10;;;4.31;58.43;99727.63;5075028;28;21146;-77
2023/02/04 10:13:31;;;;;;;1.27;0.93;;;4.70;63.60;;;4.40;59.12;99723.28;5077749;28;20470;-81
2023/02/04 10:16:01;;;;;;;0.80;0.80;;;4.70;64.50;;;4.23;57.89;99730.09;5074961;28;20470;-76
2023/02/04 10:18:32;;;;;;;1.30;0.70;;;4.70;63.10;;;4.32;58.73;99723.97;5080585;28;20476;-76
2023/02/04 10:21:14;;;;;;;2.50;1.23;;;4.70;63.80;;;4.39;58.99;99735.81;5088035;28;20475;-80
2023/02/04 10:23:42;;;;;;;1.63;1.13;;;4.80;64.10;;;4.33;57.26;99730.19;5092239;28;20455;-78
2023/02/04 10:26:12;;;;;;;2.80;1.30;;;4.80;62.60;;;4.64;56.95;99738.22;5093735;28;20470;-76
2023/02/04 10:28:40;;;;;;;0.90;0.90;;;4.90;62.40;;;4.73;56.69;99737.38;5098176;28;21193;-74
2023/02/04 10:31:32;;;;;;;2.40;1.07;;;5.00;61.90;;;5.02;56.24;99736.63;5100922;28;20451;-74
2023/02/04 10:34:10;;;;;;;0.70;0.70;;;5.30;62.80;;;5.49;54.55;99727.09;5113285;28;20477;-74
2023/02/04 10:36:39;;;;;;;0.70;0.70;;;5.60;61.30;;;5.57;53.92;99721.03;5091782;28;20478;-75